Terminal Aerodrome Forecast
Issued by NWS

Home | Current Version | Previous Version | Text Only | Print | Product List | Glossary On
Versions: 1 2 3 4 5 6 7 8 9 10 11 12
102
FTUS42 TJSJ 261742
TAFISX
TAF
TISX 261742Z 2618/2718 10012KT P6SM SCT035
     FM262300 05007KT P6SM FEW025
     FM270600 04006KT P6SM VCSH SCT030 SCT050
     FM271400 08015G22KT P6SM VCSH SCT035 SCT050=

USA.gov is the U.S. government's official web portal to all federal, state and local government web resources and services.